Terminal Aerodrome Forecast
Issued by NWS

Home | Current Version | Previous Version | Text Only | Print | Product List | Glossary On
Versions: 1 2 3 4 5 6 7 8 9 10 11 12 13 14 15 16 17 18 19 20
000
FTUS42 KTBW 280500 RRA
TAFLAL
TAF
KLAL 280550Z 2806/0106 03011KT P6SM OVC012
     FM280900 04007KT 5SM BR VCSH SCT005 OVC008
     FM281500 07011KT P6SM VCSH BKN020
     FM281800 07011KT P6SM VCSH SCT020 BKN030
     FM010100 05011KT P6SM BKN020
      AMD NOT SKED 2806/2812=

USA.gov is the U.S. government's official web portal to all federal, state and local government web resources and services.